Banloc, Romania

4:36 PM EEST on April 21, 2015 (GMT +0300)
ITIMISTO2 | | Change Station
CLOSE
Current Station
Personal Weather Station
Location: Tormac, TIMIS
Elevation: 405 ft
Nearby Weather Stations

Elev 405 ft 45.50 °N, 21.40 °E | Updated 33 seconds ago

Mostly Cloudy
Mostly Cloudy
58.8 °F
Feels Like 58.8 °F
N
8.0
Wind Variable Wind from ESE
Gusts 15.0 mph

Today
High -- | Low -- °F
--% Chance of Precip.
Yesterday
High -- | Low -- °F
Precip. -- in
6:40 AM 8:28 PM
Waxing Crescent, 10% visible
Pressure 30.09 in
Visibility 6.2 miles
Clouds Mostly Cloudy 4000 ft
Dew Point 32 °F
Humidity 37%
Rainfall 0.00 in
Snow Depth Not available.
UV 1.5 out of 12
Pollen Not available.
Air Quality Not available.
Flu Activity Not available.
METAR LYVR 211330Z VRB09KT 9999 BKN040 15/00 Q1019 NOSIG

More Conditions Fewer Conditions

Pressure 30.09 in
Visibility 6.2 miles
Clouds Mostly Cloudy 4000 ft
Dew Point 32 °F
Humidity 37%
Rainfall 0.00 in
Snow Depth Not available.
UV 1.5 out of 12
Pollen Not available.
Air Quality Not available.
Flu Activity Not available.
METAR LYVR 211330Z VRB09KT 9999 BKN040 15/00 Q1019 NOSIG

More Conditions Fewer Conditions

10-Day Weather Forecast

Almanac

Astronomy

Apr. 21, 2015 Rise Set
Actual Time
Civil Twilight
Nautical Twilight
Astronomical Twilight
Moon
Length of Visible Light
Length of Day
Tomorrow will be .
, % of the Moon is Illuminated

Today's Extremes

Country Highs Country Lows

Community

WunderPhotos

Upload Photos

1,815,379 photos uploaded!

WunderBlogs® & News

Nearby

Air Quality

  Air Quality AQ Index Pollutant
Not available.

Snow Depth

Station Depth Elevation

Earthquake Activity

City Distance Mag. Time & Date
Minimum magnitude displayed is 2.5.

Coastal Water Temperatures

Place Temperature

Stations

Nearby Weather Stations

Station Location Temp. Windchill Dew Point Humidity Wind Precip. Elev Updated Type